createdAt,value
2018-12-03T00:00:17.197Z,6.00
2018-12-03T00:02:45.402Z,6.27
2018-12-03T00:05:13.619Z,6.23
2018-12-03T00:07:41.922Z,7.27
2018-12-03T00:10:10.433Z,7.43
2018-12-03T00:12:38.663Z,7.33
2018-12-03T00:15:07.604Z,7.43
2018-12-03T00:17:36.110Z,7.57
2018-12-03T00:20:05.345Z,6.97
2018-12-03T00:22:33.874Z,7.17
2018-12-03T00:25:02.257Z,8.37
2018-12-03T00:27:30.593Z,7.67
2018-12-03T00:29:58.900Z,7.87
2018-12-03T00:32:27.133Z,7.93
2018-12-03T00:34:55.389Z,7.93
2018-12-03T00:37:23.651Z,7.73
2018-12-03T00:39:51.952Z,8.70
2018-12-03T00:42:20.177Z,8.57
2018-12-03T00:44:48.493Z,9.07
2018-12-03T00:47:16.681Z,7.73
2018-12-03T00:49:44.915Z,7.80
2018-12-03T00:52:13.182Z,9.40
2018-12-03T00:54:41.428Z,8.87
2018-12-03T00:57:09.651Z,8.73
2018-12-03T00:59:37.853Z,7.97
2018-12-03T01:02:10.373Z,7.80
2018-12-03T01:04:38.593Z,8.80
2018-12-03T01:07:07.722Z,7.77
2018-12-03T01:09:36.004Z,8.67
2018-12-03T01:12:04.277Z,8.13
2018-12-03T01:14:32.522Z,8.93
2018-12-03T01:17:00.749Z,8.30
2018-12-03T01:19:28.965Z,8.57
2018-12-03T01:21:57.173Z,9.87
2018-12-03T01:24:25.372Z,9.47
2018-12-03T01:26:53.625Z,9.00
2018-12-03T01:29:21.901Z,9.87
2018-12-03T01:31:50.135Z,9.17
2018-12-03T01:34:18.353Z,9.03
2018-12-03T01:36:46.562Z,9.67
2018-12-03T01:39:15.261Z,9.93
2018-12-03T01:41:43.485Z,9.67
2018-12-03T01:44:11.677Z,8.97
2018-12-03T01:46:39.928Z,10.90
2018-12-03T01:49:08.270Z,10.83
2018-12-03T01:51:36.497Z,9.87
2018-12-03T01:54:04.916Z,11.77
2018-12-03T01:56:33.145Z,9.37
2018-12-03T01:59:01.368Z,9.63
2018-12-03T02:01:29.625Z,9.60
2018-12-03T02:03:57.894Z,8.87
2018-12-03T02:06:26.113Z,10.23
2018-12-03T02:08:54.518Z,10.20
2018-12-03T02:11:22.758Z,9.50
2018-12-03T02:13:51.190Z,10.03
2018-12-03T02:16:19.435Z,10.40
2018-12-03T02:18:47.659Z,10.20
2018-12-03T02:21:15.917Z,10.83
2018-12-03T02:23:44.148Z,10.23
2018-12-03T02:26:12.387Z,9.93
2018-12-03T02:28:40.614Z,9.87
2018-12-03T02:31:08.926Z,9.37
2018-12-03T02:33:37.131Z,10.30
2018-12-03T02:36:05.521Z,9.97
2018-12-03T02:38:33.753Z,9.60
2018-12-03T02:41:02.000Z,10.37
2018-12-03T02:43:30.243Z,8.57
2018-12-03T02:45:58.473Z,9.13
2018-12-03T02:48:26.737Z,8.97
2018-12-03T02:50:54.998Z,8.47
2018-12-03T02:53:23.197Z,9.33
2018-12-03T02:55:51.443Z,9.43
2018-12-03T02:58:19.687Z,9.00
2018-12-03T03:00:47.890Z,9.97
2018-12-03T03:03:16.140Z,10.83
2018-12-03T03:05:44.381Z,9.83
2018-12-03T03:08:12.625Z,10.23
2018-12-03T03:10:41.009Z,10.30
2018-12-03T03:13:09.358Z,8.87
2018-12-03T03:15:37.593Z,9.70
2018-12-03T03:18:06.144Z,10.30
2018-12-03T03:20:34.510Z,9.47
2018-12-03T03:23:02.731Z,9.80
2018-12-03T03:25:30.994Z,9.67
2018-12-03T03:27:59.285Z,10.00
2018-12-03T03:30:27.635Z,10.60
2018-12-03T03:32:55.984Z,9.43
2018-12-03T03:35:24.246Z,10.50
2018-12-03T03:37:52.481Z,9.67
2018-12-03T03:40:20.726Z,11.00
2018-12-03T03:42:49.139Z,10.57
2018-12-03T03:45:19.195Z,10.47
2018-12-03T03:47:47.441Z,10.33
2018-12-03T03:50:15.714Z,9.20
2018-12-03T03:52:43.985Z,9.47
2018-12-03T03:55:12.268Z,9.60
2018-12-03T03:57:40.517Z,9.13
2018-12-03T04:00:11.930Z,9.33
2018-12-03T04:02:40.171Z,8.70
2018-12-03T04:05:11.549Z,9.07
2018-12-03T04:07:40.264Z,9.97
2018-12-03T04:10:10.312Z,9.37
2018-12-03T04:12:38.629Z,9.50
2018-12-03T04:15:08.818Z,8.67
2018-12-03T04:17:37.130Z,8.50
2018-12-03T04:20:09.582Z,9.10
2018-12-03T04:22:37.835Z,8.57
2018-12-03T04:25:07.248Z,8.17
2018-12-03T04:27:35.515Z,8.93
2018-12-03T04:30:04.365Z,8.37
2018-12-03T04:32:32.680Z,7.97
2018-12-03T04:35:00.908Z,9.03
2018-12-03T04:37:29.126Z,9.20
2018-12-03T04:39:57.406Z,8.13
2018-12-03T04:42:25.633Z,9.23
2018-12-03T04:44:53.918Z,7.97
2018-12-03T04:47:22.169Z,8.40
2018-12-03T04:49:50.501Z,9.13
2018-12-03T04:52:18.723Z,7.50
2018-12-03T04:54:46.958Z,8.30
2018-12-03T04:57:15.190Z,7.83
2018-12-03T04:59:43.381Z,7.33
2018-12-03T05:02:11.616Z,7.53
2018-12-03T05:04:39.835Z,7.20
2018-12-03T05:07:08.037Z,8.00
2018-12-03T05:09:36.265Z,6.67
2018-12-03T05:12:04.494Z,6.63
2018-12-03T05:14:32.691Z,6.50
2018-12-03T05:17:00.890Z,7.33
2018-12-03T05:19:29.098Z,7.43
2018-12-03T05:21:57.314Z,7.33
2018-12-03T05:24:25.626Z,8.10
2018-12-03T05:26:53.898Z,7.60
2018-12-03T05:29:22.138Z,7.17
2018-12-03T05:31:50.397Z,7.80
2018-12-03T05:34:18.593Z,7.70
2018-12-03T05:36:46.825Z,6.87
2018-12-03T05:39:15.037Z,7.17
2018-12-03T05:41:43.266Z,6.87
2018-12-03T05:44:11.469Z,6.50
2018-12-03T05:46:39.646Z,7.10
2018-12-03T05:49:07.901Z,5.37
2018-12-03T05:51:36.135Z,6.93
2018-12-03T05:54:04.429Z,5.47
2018-12-03T05:56:32.667Z,6.03
2018-12-03T05:59:00.964Z,5.77
2018-12-03T06:01:29.241Z,5.60
2018-12-03T06:03:57.480Z,6.00
2018-12-03T06:06:25.679Z,5.13
2018-12-03T06:08:53.916Z,5.63
2018-12-03T06:11:22.160Z,4.87
2018-12-03T06:13:50.390Z,5.63
2018-12-03T06:16:18.641Z,6.10
2018-12-03T06:18:46.854Z,5.50
2018-12-03T06:23:55.708Z,5.73
2018-12-03T06:26:24.786Z,5.77
2018-12-03T06:28:52.994Z,5.67
2018-12-03T06:31:21.227Z,6.87
2018-12-03T06:33:49.450Z,6.53
2018-12-03T06:36:17.637Z,6.57
2018-12-03T06:38:45.849Z,6.37
2018-12-03T06:41:14.076Z,5.60
2018-12-03T06:43:42.304Z,6.40
2018-12-03T06:46:10.582Z,6.87
2018-12-03T06:48:38.834Z,6.60
2018-12-03T06:51:07.042Z,6.67
2018-12-03T06:53:35.305Z,7.00
2018-12-03T06:56:03.582Z,6.10
2018-12-03T06:58:31.864Z,7.30
2018-12-03T07:01:00.137Z,6.97
2018-12-03T07:03:28.321Z,5.47
2018-12-03T07:05:56.556Z,6.73
2018-12-03T07:08:24.769Z,5.90
2018-12-03T07:10:53.246Z,6.23
2018-12-03T07:13:22.549Z,5.83
2018-12-03T07:15:53.861Z,6.70
2018-12-03T07:18:22.213Z,6.73
2018-12-03T07:20:50.450Z,6.63
2018-12-03T07:23:18.651Z,6.60
2018-12-03T07:25:46.913Z,6.20
2018-12-03T07:28:15.148Z,5.80
2018-12-03T07:30:43.365Z,6.53
2018-12-03T07:33:11.587Z,6.20
2018-12-03T07:35:39.842Z,5.73
2018-12-03T07:38:08.494Z,6.17
2018-12-03T07:40:36.753Z,5.43
2018-12-03T07:43:05.422Z,7.10
2018-12-03T07:45:33.809Z,6.33
2018-12-03T07:48:02.052Z,5.73
2018-12-03T07:50:30.280Z,5.80
2018-12-03T07:52:58.486Z,5.17
2018-12-03T07:55:27.059Z,3.47
2018-12-03T07:58:14.989Z,4.30
2018-12-03T08:00:46.833Z,3.97
2018-12-03T08:03:15.061Z,3.27
2018-12-03T08:05:43.294Z,4.70
2018-12-03T08:08:11.473Z,3.60
2018-12-03T08:10:41.006Z,4.57
2018-12-03T08:13:10.477Z,4.23
2018-12-03T08:15:38.854Z,3.53
2018-12-03T08:18:08.981Z,4.20
2018-12-03T08:20:44.541Z,3.23
2018-12-03T08:23:16.692Z,4.03
2018-12-03T08:25:44.902Z,4.20
2018-12-03T08:28:13.172Z,3.37
2018-12-03T08:30:41.365Z,3.47
2018-12-03T08:33:09.566Z,3.60
2018-12-03T08:35:37.797Z,3.23
2018-12-03T08:38:06.169Z,4.67
2018-12-03T08:40:34.370Z,5.73
2018-12-03T08:43:02.586Z,3.77
2018-12-03T08:45:30.821Z,3.27
2018-12-03T08:47:59.041Z,2.73
2018-12-03T08:50:28.272Z,3.63
2018-12-03T08:52:57.513Z,3.00
2018-12-03T08:55:25.701Z,3.50
2018-12-03T08:57:53.985Z,3.27
2018-12-03T09:00:26.621Z,3.67
2018-12-03T09:03:00.974Z,2.80
2018-12-03T09:05:33.562Z,3.03
2018-12-03T09:08:01.878Z,2.93
2018-12-03T09:10:30.210Z,3.57
2018-12-03T09:13:01.242Z,3.17
2018-12-03T09:15:29.550Z,2.53
2018-12-03T09:17:57.804Z,1.67
2018-12-03T09:20:26.033Z,3.00
2018-12-03T09:22:54.306Z,2.70
2018-12-03T09:25:24.535Z,2.37
2018-12-03T09:27:52.774Z,2.43
2018-12-03T09:30:21.023Z,1.97
2018-12-03T09:32:49.763Z,3.07
2018-12-03T09:35:17.943Z,2.40
2018-12-03T09:37:46.182Z,2.43
2018-12-03T09:40:18.113Z,2.33
2018-12-03T09:42:46.346Z,2.50
2018-12-03T09:45:16.733Z,2.70
2018-12-03T09:47:45.410Z,2.60
2018-12-03T09:50:24.011Z,2.80
2018-12-03T09:52:52.356Z,2.47
2018-12-03T09:55:25.794Z,2.73
2018-12-03T09:58:00.033Z,3.43
2018-12-03T10:00:28.237Z,2.63
2018-12-03T10:02:57.990Z,2.27
2018-12-03T10:05:31.834Z,2.40
2018-12-03T10:08:00.108Z,2.57
2018-12-03T10:10:28.359Z,1.97
2018-12-03T10:12:56.562Z,2.47
2018-12-03T10:15:27.785Z,2.90
2018-12-03T10:17:57.397Z,3.17
2018-12-03T10:20:25.724Z,2.67
2018-12-03T10:22:53.996Z,2.37
2018-12-03T10:25:22.241Z,2.63
2018-12-03T10:27:50.473Z,2.27
2018-12-03T10:30:20.036Z,3.50
2018-12-03T10:32:49.796Z,3.43
2018-12-03T10:35:18.453Z,3.27
2018-12-03T10:37:46.975Z,3.17
2018-12-03T10:40:16.949Z,3.10
2018-12-03T10:42:46.045Z,2.57
2018-12-03T10:45:16.028Z,2.60
2018-12-03T10:47:44.269Z,3.00
2018-12-03T10:50:14.281Z,2.40
2018-12-03T10:52:42.487Z,2.77
2018-12-03T10:55:11.874Z,2.87
2018-12-03T10:57:41.076Z,3.40
2018-12-03T11:00:19.978Z,3.13
2018-12-03T11:02:53.985Z,2.80
2018-12-03T11:05:31.868Z,4.00
2018-12-03T11:08:00.081Z,3.97
2018-12-03T11:10:37.022Z,2.37
2018-12-03T11:13:05.549Z,2.67
2018-12-03T11:15:33.798Z,3.93
2018-12-03T11:18:02.892Z,4.20
2018-12-03T11:20:31.085Z,3.83
2018-12-03T11:22:59.303Z,3.73
2018-12-03T11:25:29.081Z,3.53
2018-12-03T11:27:58.357Z,3.53
2018-12-03T11:30:26.586Z,3.57
2018-12-03T11:32:54.820Z,3.63
2018-12-03T11:35:25.806Z,3.43
2018-12-03T11:37:58.758Z,4.30
2018-12-03T11:40:42.217Z,3.70
2018-12-03T11:43:10.791Z,3.70
2018-12-03T11:45:38.989Z,4.03
2018-12-03T11:48:07.678Z,4.60
2018-12-03T11:50:36.089Z,3.80
2018-12-03T11:53:04.352Z,3.67
2018-12-03T11:55:32.592Z,2.80
2018-12-03T11:58:00.777Z,4.37
2018-12-03T12:00:29.033Z,3.77
2018-12-03T12:02:57.301Z,4.43
2018-12-03T12:05:25.497Z,4.70
2018-12-03T12:07:53.746Z,4.27
2018-12-03T12:10:21.961Z,4.93
2018-12-03T12:12:50.403Z,4.07
2018-12-03T12:15:18.632Z,4.30
2018-12-03T12:17:46.853Z,4.83
2018-12-03T12:20:15.109Z,4.63
2018-12-03T12:22:43.441Z,5.23
2018-12-03T12:25:12.691Z,4.53
2018-12-03T12:27:44.647Z,4.93
2018-12-03T12:30:14.748Z,5.60
2018-12-03T12:32:43.018Z,6.63
2018-12-03T12:35:11.461Z,5.63
2018-12-03T12:37:39.646Z,5.93
2018-12-03T12:40:09.919Z,4.87
2018-12-03T12:42:38.114Z,5.10
2018-12-03T12:45:15.694Z,5.57
2018-12-03T12:47:43.982Z,5.40
2018-12-03T12:50:14.990Z,4.90
2018-12-03T12:52:43.297Z,5.77
2018-12-03T12:55:11.497Z,4.80
2018-12-03T12:57:39.756Z,5.17
2018-12-03T13:00:14.688Z,5.50
2018-12-03T13:02:43.905Z,4.90
2018-12-03T13:05:12.193Z,4.90
2018-12-03T13:07:40.353Z,3.40
2018-12-03T13:10:11.627Z,4.77
2018-12-03T13:12:39.870Z,3.87
2018-12-03T13:15:11.798Z,4.80
2018-12-03T13:17:41.245Z,4.07
2018-12-03T13:20:15.357Z,3.90
2018-12-03T13:22:43.589Z,5.10
2018-12-03T13:25:13.734Z,4.30
2018-12-03T13:27:41.945Z,4.27
2018-12-03T13:30:12.577Z,5.20
2018-12-03T13:32:40.811Z,4.27
2018-12-03T13:35:10.688Z,4.63
2018-12-03T13:37:38.931Z,4.37
2018-12-03T13:40:11.237Z,5.30
2018-12-03T13:42:39.456Z,4.40
2018-12-03T13:45:14.257Z,4.87
2018-12-03T13:47:42.481Z,5.30
2018-12-03T13:50:14.293Z,4.50
2018-12-03T13:52:42.801Z,4.73
2018-12-03T13:55:12.905Z,5.10
2018-12-03T13:57:41.426Z,4.70
2018-12-03T14:00:13.595Z,4.70
2018-12-03T14:02:42.445Z,5.30
2018-12-03T14:05:12.604Z,4.17
2018-12-03T14:07:51.868Z,5.00
2018-12-03T14:12:48.749Z,5.43
2018-12-03T14:17:32.993Z,5.27
2018-12-03T14:20:01.321Z,3.63
2018-12-03T14:22:35.801Z,4.47
2018-12-03T14:25:04.276Z,5.00
2018-12-03T14:27:32.526Z,3.97
2018-12-03T14:30:00.831Z,5.13
2018-12-03T14:32:29.109Z,3.83
2018-12-03T14:34:57.330Z,5.50
2018-12-03T14:37:25.597Z,4.70
2018-12-03T14:39:53.794Z,5.10
2018-12-03T14:42:22.030Z,4.47
2018-12-03T14:44:50.270Z,4.27
2018-12-03T14:47:18.537Z,4.37
2018-12-03T14:49:46.788Z,4.13
2018-12-03T14:52:15.047Z,4.13
2018-12-03T14:54:43.262Z,4.03
2018-12-03T14:57:11.461Z,4.47
2018-12-03T14:59:39.686Z,3.60
2018-12-03T15:02:07.928Z,4.80
2018-12-03T15:04:36.136Z,5.73
2018-12-03T15:07:04.389Z,5.30
2018-12-03T15:09:32.592Z,5.13
2018-12-03T15:12:00.856Z,4.43
2018-12-03T15:14:29.089Z,4.77
2018-12-03T15:16:57.338Z,4.00
2018-12-03T15:19:25.561Z,4.33
2018-12-03T15:21:53.818Z,3.67
2018-12-03T15:24:22.193Z,3.33
2018-12-03T15:26:50.420Z,4.50
2018-12-03T15:29:18.662Z,4.53
2018-12-03T15:31:46.894Z,5.00
2018-12-03T15:34:15.101Z,4.83
2018-12-03T15:36:43.320Z,5.13
2018-12-03T15:39:11.549Z,3.60
2018-12-03T15:41:39.751Z,5.40
2018-12-03T15:44:07.966Z,4.93
2018-12-03T15:46:37.265Z,4.47
2018-12-03T15:49:05.508Z,4.83
2018-12-03T15:51:33.777Z,5.10
2018-12-03T15:54:02.058Z,5.50
2018-12-03T15:56:30.265Z,4.00
2018-12-03T15:58:58.475Z,5.33
2018-12-03T16:01:26.730Z,5.00
2018-12-03T16:03:54.983Z,5.10
2018-12-03T16:06:23.233Z,4.97
2018-12-03T16:08:51.425Z,5.53
2018-12-03T16:11:19.703Z,6.03
2018-12-03T16:13:47.934Z,5.23
2018-12-03T16:16:16.152Z,5.50
2018-12-03T16:18:44.394Z,4.70
2018-12-03T16:21:12.634Z,5.40
2018-12-03T16:23:40.940Z,4.57
2018-12-03T16:26:09.186Z,5.37
2018-12-03T16:28:37.445Z,4.83
2018-12-03T16:31:05.697Z,5.17
2018-12-03T16:33:33.962Z,5.53
2018-12-03T16:36:02.153Z,5.67
2018-12-03T16:38:30.415Z,5.43
2018-12-03T16:40:58.635Z,5.30
2018-12-03T16:43:26.885Z,5.33
2018-12-03T16:45:55.235Z,5.03
2018-12-03T16:48:23.555Z,5.10
2018-12-03T16:50:51.816Z,5.30
2018-12-03T16:53:20.260Z,4.70
2018-12-03T16:55:48.655Z,4.33
2018-12-03T16:58:16.935Z,4.80
2018-12-03T17:00:45.157Z,4.07
2018-12-03T17:03:16.670Z,5.27
2018-12-03T17:05:46.045Z,4.33
2018-12-03T17:08:15.470Z,5.60
2018-12-03T17:10:43.776Z,4.20
2018-12-03T17:13:12.013Z,4.70
2018-12-03T17:15:40.316Z,5.10
2018-12-03T17:18:08.603Z,4.50
2018-12-03T17:20:43.176Z,4.07
2018-12-03T17:23:20.982Z,4.97
2018-12-03T17:25:49.525Z,4.20
2018-12-03T17:28:17.740Z,4.97
2018-12-03T17:30:45.981Z,5.23
2018-12-03T17:33:14.481Z,4.80
2018-12-03T17:35:42.752Z,3.57
2018-12-03T17:38:11.021Z,4.87
2018-12-03T17:40:40.976Z,4.13
2018-12-03T17:43:09.833Z,4.47
2018-12-03T17:45:39.073Z,3.53
2018-12-03T17:48:07.310Z,5.63
2018-12-03T17:50:35.761Z,4.60
2018-12-03T17:53:04.003Z,4.53
2018-12-03T17:55:32.218Z,3.63
2018-12-03T17:58:00.508Z,5.50
2018-12-03T18:00:29.522Z,3.90
2018-12-03T18:02:57.780Z,5.37
2018-12-03T18:05:26.594Z,4.67
2018-12-03T18:07:54.848Z,4.63
2018-12-03T18:10:23.162Z,5.27
2018-12-03T18:12:51.504Z,5.13
2018-12-03T18:15:19.859Z,4.90
2018-12-03T18:17:48.702Z,5.17
2018-12-03T18:20:17.582Z,5.83
2018-12-03T18:22:46.042Z,5.93
2018-12-03T18:25:21.087Z,5.00
2018-12-03T18:27:49.441Z,4.23
2018-12-03T18:30:17.909Z,5.50
2018-12-03T18:32:46.290Z,5.97
2018-12-03T18:35:14.925Z,6.37
2018-12-03T18:37:43.205Z,5.57
2018-12-03T18:40:12.870Z,5.33
2018-12-03T18:42:41.174Z,5.93
2018-12-03T18:45:09.673Z,5.07
2018-12-03T18:47:38.622Z,6.80
2018-12-03T18:50:12.717Z,5.73
2018-12-03T18:52:40.947Z,6.50
2018-12-03T18:55:09.345Z,5.70
2018-12-03T18:57:37.603Z,6.97
2018-12-03T19:00:10.316Z,6.47
2018-12-03T19:02:38.561Z,6.40
2018-12-03T19:05:06.841Z,6.40
2018-12-03T19:07:35.246Z,5.87
2018-12-03T19:10:03.665Z,6.20
2018-12-03T19:12:31.921Z,6.13
2018-12-03T19:15:00.298Z,6.80
2018-12-03T19:17:28.869Z,6.57
2018-12-03T19:19:57.143Z,7.83
2018-12-03T19:22:26.535Z,6.37
2018-12-03T19:24:54.895Z,7.13
2018-12-03T19:27:23.141Z,6.83
2018-12-03T19:29:52.581Z,6.40
2018-12-03T19:32:20.851Z,6.47
2018-12-03T19:34:49.088Z,6.67
2018-12-03T19:37:17.339Z,6.27
2018-12-03T19:39:45.693Z,6.87
2018-12-03T19:42:14.081Z,7.37
2018-12-03T19:44:42.339Z,6.17
2018-12-03T19:47:11.049Z,6.80
2018-12-03T19:49:39.362Z,6.70
2018-12-03T19:52:08.430Z,6.70
2018-12-03T19:54:36.663Z,6.20
2018-12-03T19:57:06.757Z,7.33
2018-12-03T19:59:39.199Z,7.70
2018-12-03T20:02:07.535Z,7.10
2018-12-03T20:04:41.021Z,7.53
2018-12-03T20:07:09.277Z,7.10
2018-12-03T20:09:37.667Z,7.00
2018-12-03T20:12:05.958Z,6.83
2018-12-03T20:14:34.225Z,6.70
2018-12-03T20:17:02.651Z,8.00
2018-12-03T20:19:30.877Z,7.97
2018-12-03T20:21:59.767Z,6.67
2018-12-03T20:24:28.325Z,5.70
2018-12-03T20:28:19.441Z,6.50
2018-12-03T20:32:06.831Z,5.43
2018-12-03T20:34:41.141Z,6.60
2018-12-03T20:38:25.134Z,5.20
2018-12-03T20:41:01.769Z,6.17
2018-12-03T20:43:31.394Z,6.57
2018-12-03T20:46:23.473Z,6.60
2018-12-03T20:49:17.871Z,6.63
2018-12-03T20:51:47.956Z,6.17
2018-12-03T20:54:16.213Z,4.70
2018-12-03T20:56:44.454Z,3.70
2018-12-03T20:59:12.705Z,2.50
2018-12-03T21:01:43.605Z,1.77
2018-12-03T21:04:11.881Z,1.20
2018-12-03T21:06:46.547Z,1.23
2018-12-03T21:09:14.827Z,1.80
2018-12-03T21:11:43.017Z,1.50
2018-12-03T21:14:11.220Z,1.47
2018-12-03T21:16:39.606Z,2.00
2018-12-03T21:19:07.832Z,1.43
2018-12-03T21:21:36.206Z,2.20
2018-12-03T21:24:05.102Z,2.30
2018-12-03T21:26:33.354Z,1.77
2018-12-03T21:29:02.315Z,1.70
2018-12-03T21:31:30.553Z,1.67
2018-12-03T21:33:58.901Z,1.50
2018-12-03T21:36:27.206Z,2.53
2018-12-03T21:38:55.465Z,1.80
2018-12-03T21:41:23.762Z,1.30
2018-12-03T21:43:52.077Z,1.90
2018-12-03T21:46:20.501Z,1.40
2018-12-03T21:48:48.798Z,1.53
2018-12-03T21:51:17.155Z,2.13
2018-12-03T21:53:45.445Z,1.67
2018-12-03T21:56:13.681Z,2.83
2018-12-03T21:58:41.898Z,3.60
2018-12-03T22:01:10.190Z,2.40
2018-12-03T22:03:38.459Z,2.00
2018-12-03T22:06:06.731Z,2.43
2018-12-03T22:08:35.058Z,2.27
2018-12-03T22:11:03.496Z,2.87
2018-12-03T22:13:31.754Z,1.97
2018-12-03T22:16:00.057Z,2.30
2018-12-03T22:18:28.314Z,2.23
2018-12-03T22:20:56.501Z,2.37
2018-12-03T22:23:24.818Z,2.70
2018-12-03T22:25:53.254Z,1.80
2018-12-03T22:28:21.545Z,1.80
2018-12-03T22:30:49.795Z,2.20
2018-12-03T22:33:18.068Z,2.07
2018-12-03T22:35:46.331Z,1.83
2018-12-03T22:38:14.531Z,1.87
2018-12-03T22:40:42.791Z,1.77
2018-12-03T22:43:11.189Z,2.37
2018-12-03T22:45:39.395Z,1.53
2018-12-03T22:48:07.606Z,2.20
2018-12-03T22:50:36.029Z,2.17
2018-12-03T22:53:04.273Z,1.90
2018-12-03T22:55:32.688Z,1.80
2018-12-03T22:58:00.851Z,1.43
2018-12-03T23:00:34.465Z,1.70
2018-12-03T23:03:02.656Z,0.97
2018-12-03T23:05:31.516Z,1.60
2018-12-03T23:07:59.794Z,1.77
2018-12-03T23:10:28.147Z,1.60
2018-12-03T23:12:56.456Z,1.67
2018-12-03T23:15:24.645Z,1.33
2018-12-03T23:17:53.402Z,1.97
2018-12-03T23:20:21.621Z,1.43
2018-12-03T23:22:49.889Z,1.57
2018-12-03T23:25:18.129Z,1.63
2018-12-03T23:27:46.385Z,1.67
2018-12-03T23:30:14.754Z,1.60
2018-12-03T23:32:43.047Z,1.50
2018-12-03T23:35:12.415Z,1.60
2018-12-03T23:37:41.740Z,1.30
2018-12-03T23:40:09.938Z,1.50
2018-12-03T23:42:38.133Z,1.67
2018-12-03T23:45:07.310Z,1.57
2018-12-03T23:47:35.609Z,1.40
2018-12-03T23:50:03.870Z,1.73
2018-12-03T23:52:32.057Z,1.60
2018-12-03T23:55:00.422Z,1.40
2018-12-03T23:57:28.736Z,1.63
2018-12-03T23:59:56.937Z,1.67
